CheckWX is a tool to help pilots better visualize weather data.  It is not intended as a substitute for an official pre-flight weather briefing.

22:05:54 UTC

OEHL TAF
Hail Airport
Saudi Arabia
TAF OEHL 201100Z 2012/2118 24006G16KT 8000 FEW040 TEMPO 2012/2018 4000 DU BLDU PROB30 TEMPO 2012/2016 FEW030CB

Mar-20@
12:00 UTC

Mar-20 @ 12:00 UTC

Mar-21@
18:00 UTC

Mar-21 @ 18:00 UTC

TAF OEHL 201100Z 2012/2118 24006G16KT 8000 FEW040
Wind
  • 240° at 6 KTS
  • {Gusting to 16 KTS
Cloud Levels
  • Few at 4,000' AGL

Mar-20@
12:00 UTC

Mar-20 @ 12:00 UTC

Mar-20@
16:00 UTC

Mar-20 @ 16:00 UTC

PROB30 TEMPO 2012/2016 FEW030CB

Expired

Cloud Levels
  • Few at 3,000' AGL

Mar-20@
12:00 UTC

Mar-20 @ 12:00 UTC

Mar-20@
18:00 UTC

Mar-20 @ 18:00 UTC

TEMPO 2012/2018 4000 DU BLDU

Expired

Conditions
Dust, Blowing Dust